Charter Quote
Worldwide +44-20-3874-8091 Call
Select Language Lang
SAFETY RELIABILITY EXPERIENCE

Amberieu Airport (LFXA) - Jet Charter Services

AIRPORT INFORMATION
ICAOLFXA
LOCATIONAmberieu En Bug, France
FACILITY TYPEAIRPORT
Runway Length (ft) Width (ft) Surface Type Elevation (ft)
19/01 6562 98 ASP 822.45902
20/02 2625 328 GRS 822.45902

At Paramount Business Jets you can hire chartered private jets to and from Amberieu Airport with as little as 4 hours of notice. All flights booked via Paramount Business Jets are operated by certified direct air carriers that meet and exceed the FAA part 135 and 121 protocol or a foreign equivalent safety authority. Furthermore, Paramount Business Jets subscribes to ARGUS for their third party safety checks of operators, aircraft, and crews prior each and every flight to and from Amberieu Airport and worldwide.

  • Quote a trip using Amberieu Airport or call us 24/7 - 365 days a year at +44-20-3874-8091.
Questions? Call +44-20-3874-8091

METAR Weather Data at Amberieu Airport, LFXA

STATIONLFXA
OBSERVEDMon Sep 3, 15:00 UTC
NOWWed Jan 23, 22:43 UTC
AGE55999:43 hr ago
WINDNNW at 16 mph
VISIBILITY16 miles
CLOUDSmostly cloudy
TEMP72°F (22°C)
DEWPT57°F (14°C)
HUMIDITY61%
BAROMETER1017 hPa (30.03 in Hg)
METARLFXA 031500Z 34014KT 320V030 9999 FEW026 BKN050 22/14 Q1017

Call us on +44-20-3874-8091 (24 Hours) to Hire a Private Jet or Get a Quick Quote.

Find Airports Near any Location

Processing
...